sensor_id;sensor_type;location;lat;lon;timestamp;temperature;humidity
20231;DHT22;10274;49.022;9.338;2023-04-25T00:01:02;8.20;99.90
20231;DHT22;10274;49.022;9.338;2023-04-25T00:03:30;8.10;99.90
20231;DHT22;10274;49.022;9.338;2023-04-25T00:05:57;8.20;99.90
20231;DHT22;10274;49.022;9.338;2023-04-25T00:08:27;8.30;99.90
20231;DHT22;10274;49.022;9.338;2023-04-25T00:10:55;8.30;99.90
20231;DHT22;10274;49.022;9.338;2023-04-25T00:13:22;8.40;99.90
20231;DHT22;10274;49.022;9.338;2023-04-25T00:15:51;8.50;99.90
20231;DHT22;10274;49.022;9.338;2023-04-25T00:18:18;8.50;99.90
20231;DHT22;10274;49.022;9.338;2023-04-25T00:20:45;8.50;99.90
20231;DHT22;10274;49.022;9.338;2023-04-25T00:23:12;8.50;99.90
20231;DHT22;10274;49.022;9.338;2023-04-25T00:25:43;8.50;99.90
20231;DHT22;10274;49.022;9.338;2023-04-25T00:28:11;8.60;96.70
20231;DHT22;10274;49.022;9.338;2023-04-25T00:30:37;8.60;77.30
20231;DHT22;10274;49.022;9.338;2023-04-25T00:33:04;8.60;42.20
20231;DHT22;10274;49.022;9.338;2023-04-25T00:35:31;8.50;37.50
20231;DHT22;10274;49.022;9.338;2023-04-25T00:37:57;8.50;60.60
20231;DHT22;10274;49.022;9.338;2023-04-25T00:40:24;8.60;68.30
20231;DHT22;10274;49.022;9.338;2023-04-25T00:42:52;8.50;84.30
20231;DHT22;10274;49.022;9.338;2023-04-25T00:45:20;8.60;93.10
20231;DHT22;10274;49.022;9.338;2023-04-25T00:47:47;8.50;83.30
20231;DHT22;10274;49.022;9.338;2023-04-25T00:50:14;8.50;82.10
20231;DHT22;10274;49.022;9.338;2023-04-25T00:52:43;8.50;90.10
20231;DHT22;10274;49.022;9.338;2023-04-25T00:55:10;8.50;83.30
20231;DHT22;10274;49.022;9.338;2023-04-25T00:57:38;8.40;74.80
20231;DHT22;10274;49.022;9.338;2023-04-25T01:00:06;8.30;68.80
20231;DHT22;10274;49.022;9.338;2023-04-25T01:02:36;8.20;81.80
20231;DHT22;10274;49.022;9.338;2023-04-25T01:05:04;8.10;96.10
20231;DHT22;10274;49.022;9.338;2023-04-25T01:07:31;8.10;99.90
20231;DHT22;10274;49.022;9.338;2023-04-25T01:09:58;8.00;99.90
20231;DHT22;10274;49.022;9.338;2023-04-25T01:12:24;8.00;99.90
20231;DHT22;10274;49.022;9.338;2023-04-25T01:14:51;8.10;99.90
20231;DHT22;10274;49.022;9.338;2023-04-25T01:17:18;8.20;99.90
20231;DHT22;10274;49.022;9.338;2023-04-25T01:19:46;8.20;99.90
20231;DHT22;10274;49.022;9.338;2023-04-25T01:22:15;8.20;99.90
20231;DHT22;10274;49.022;9.338;2023-04-25T01:24:42;8.20;99.90
20231;DHT22;10274;49.022;9.338;2023-04-25T01:27:09;8.20;96.90
20231;DHT22;10274;49.022;9.338;2023-04-25T01:29:36;8.10;94.20
20231;DHT22;10274;49.022;9.338;2023-04-25T01:32:04;8.20;88.70
20231;DHT22;10274;49.022;9.338;2023-04-25T01:34:31;8.10;88.90
20231;DHT22;10274;49.022;9.338;2023-04-25T01:36:59;8.10;91.50
20231;DHT22;10274;49.022;9.338;2023-04-25T01:39:28;8.00;95.30
20231;DHT22;10274;49.022;9.338;2023-04-25T01:41:55;7.80;97.00
20231;DHT22;10274;49.022;9.338;2023-04-25T01:44:22;7.50;97.60
20231;DHT22;10274;49.022;9.338;2023-04-25T01:46:48;7.40;99.90
20231;DHT22;10274;49.022;9.338;2023-04-25T01:49:15;7.60;99.90
20231;DHT22;10274;49.022;9.338;2023-04-25T01:51:42;7.60;99.90
20231;DHT22;10274;49.022;9.338;2023-04-25T01:54:10;7.90;99.90
20231;DHT22;10274;49.022;9.338;2023-04-25T01:56:39;8.10;85.60
20231;DHT22;10274;49.022;9.338;2023-04-25T01:59:06;8.00;95.70
20231;DHT22;10274;49.022;9.338;2023-04-25T02:01:33;8.10;97.00
20231;DHT22;10274;49.022;9.338;2023-04-25T02:03:59;8.10;91.80
20231;DHT22;10274;49.022;9.338;2023-04-25T02:06:26;8.20;85.90
20231;DHT22;10274;49.022;9.338;2023-04-25T02:08:53;8.30;70.40
20231;DHT22;10274;49.022;9.338;2023-04-25T02:11:19;8.30;72.10
20231;DHT22;10274;49.022;9.338;2023-04-25T02:13:47;8.30;66.20
20231;DHT22;10274;49.022;9.338;2023-04-25T02:16:14;8.30;40.80
20231;DHT22;10274;49.022;9.338;2023-04-25T02:18:41;8.20;60.00
20231;DHT22;10274;49.022;9.338;2023-04-25T02:21:08;8.00;77.90
20231;DHT22;10274;49.022;9.338;2023-04-25T02:23:34;8.00;87.70
20231;DHT22;10274;49.022;9.338;2023-04-25T02:26:01;7.90;95.00
20231;DHT22;10274;49.022;9.338;2023-04-25T02:28:28;7.90;92.60
20231;DHT22;10274;49.022;9.338;2023-04-25T02:30:56;7.90;94.90
20231;DHT22;10274;49.022;9.338;2023-04-25T02:33:22;8.00;95.50
20231;DHT22;10274;49.022;9.338;2023-04-25T02:35:49;8.00;92.90
20231;DHT22;10274;49.022;9.338;2023-04-25T02:38:15;8.00;93.60
20231;DHT22;10274;49.022;9.338;2023-04-25T02:40:42;7.90;94.80
20231;DHT22;10274;49.022;9.338;2023-04-25T02:43:09;7.90;91.20
20231;DHT22;10274;49.022;9.338;2023-04-25T02:45:36;7.80;94.40
20231;DHT22;10274;49.022;9.338;2023-04-25T02:48:05;7.90;99.80
20231;DHT22;10274;49.022;9.338;2023-04-25T02:50:31;7.90;95.20
20231;DHT22;10274;49.022;9.338;2023-04-25T02:52:58;7.90;99.90
20231;DHT22;10274;49.022;9.338;2023-04-25T02:55:25;7.90;99.90
20231;DHT22;10274;49.022;9.338;2023-04-25T02:57:52;8.00;99.90
20231;DHT22;10274;49.022;9.338;2023-04-25T03:00:20;8.00;98.00
20231;DHT22;10274;49.022;9.338;2023-04-25T03:02:47;8.00;90.60
20231;DHT22;10274;49.022;9.338;2023-04-25T03:05:15;8.00;90.90
20231;DHT22;10274;49.022;9.338;2023-04-25T03:07:42;8.10;85.10
20231;DHT22;10274;49.022;9.338;2023-04-25T03:10:09;8.10;78.10
20231;DHT22;10274;49.022;9.338;2023-04-25T03:12:36;8.20;91.80
20231;DHT22;10274;49.022;9.338;2023-04-25T03:15:04;8.20;92.40
20231;DHT22;10274;49.022;9.338;2023-04-25T03:17:30;8.20;77.70
20231;DHT22;10274;49.022;9.338;2023-04-25T03:19:57;8.20;73.80
20231;DHT22;10274;49.022;9.338;2023-04-25T03:22:25;8.20;78.10
20231;DHT22;10274;49.022;9.338;2023-04-25T03:24:52;8.00;86.50
20231;DHT22;10274;49.022;9.338;2023-04-25T03:27:19;8.10;89.00
20231;DHT22;10274;49.022;9.338;2023-04-25T03:29:45;8.00;91.40
20231;DHT22;10274;49.022;9.338;2023-04-25T03:32:12;8.10;71.40
20231;DHT22;10274;49.022;9.338;2023-04-25T03:34:39;8.10;71.90
20231;DHT22;10274;49.022;9.338;2023-04-25T03:37:06;8.10;69.40
20231;DHT22;10274;49.022;9.338;2023-04-25T03:39:34;8.10;79.60
20231;DHT22;10274;49.022;9.338;2023-04-25T03:42:01;8.10;80.80
20231;DHT22;10274;49.022;9.338;2023-04-25T03:44:28;8.10;91.70
20231;DHT22;10274;49.022;9.338;2023-04-25T03:46:54;8.00;92.60
20231;DHT22;10274;49.022;9.338;2023-04-25T03:49:21;8.10;92.70
20231;DHT22;10274;49.022;9.338;2023-04-25T03:51:48;8.10;94.90
20231;DHT22;10274;49.022;9.338;2023-04-25T03:54:15;8.00;99.90
20231;DHT22;10274;49.022;9.338;2023-04-25T03:56:42;8.00;99.90
20231;DHT22;10274;49.022;9.338;2023-04-25T03:59:09;8.00;99.90
20231;DHT22;10274;49.022;9.338;2023-04-25T04:01:36;8.00;94.00
20231;DHT22;10274;49.022;9.338;2023-04-25T04:04:03;8.10;93.80
20231;DHT22;10274;49.022;9.338;2023-04-25T04:06:29;8.10;88.90
20231;DHT22;10274;49.022;9.338;2023-04-25T04:08:56;8.10;96.60
20231;DHT22;10274;49.022;9.338;2023-04-25T04:11:23;8.10;99.90
20231;DHT22;10274;49.022;9.338;2023-04-25T04:13:51;8.10;99.90
20231;DHT22;10274;49.022;9.338;2023-04-25T04:16:17;8.10;99.90
20231;DHT22;10274;49.022;9.338;2023-04-25T04:18:45;8.10;99.90
20231;DHT22;10274;49.022;9.338;2023-04-25T04:21:12;8.00;99.90
20231;DHT22;10274;49.022;9.338;2023-04-25T04:23:38;8.00;99.90
20231;DHT22;10274;49.022;9.338;2023-04-25T04:26:05;8.00;99.90
20231;DHT22;10274;49.022;9.338;2023-04-25T04:28:32;8.00;99.90
20231;DHT22;10274;49.022;9.338;2023-04-25T04:31:00;8.00;99.90
20231;DHT22;10274;49.022;9.338;2023-04-25T04:33:28;8.00;99.90
20231;DHT22;10274;49.022;9.338;2023-04-25T04:35:54;8.00;99.90
20231;DHT22;10274;49.022;9.338;2023-04-25T04:38:21;8.00;99.90
20231;DHT22;10274;49.022;9.338;2023-04-25T04:40:49;8.10;99.40
20231;DHT22;10274;49.022;9.338;2023-04-25T04:43:15;8.20;95.10
20231;DHT22;10274;49.022;9.338;2023-04-25T04:45:44;8.20;73.60
20231;DHT22;10274;49.022;9.338;2023-04-25T04:48:12;8.20;60.80
20231;DHT22;10274;49.022;9.338;2023-04-25T04:50:39;8.30;57.20
20231;DHT22;10274;49.022;9.338;2023-04-25T04:53:06;8.30;69.50
20231;DHT22;10274;49.022;9.338;2023-04-25T04:55:33;8.30;61.60
20231;DHT22;10274;49.022;9.338;2023-04-25T04:58:00;8.40;54.30
20231;DHT22;10274;49.022;9.338;2023-04-25T05:00:26;8.30;38.80
20231;DHT22;10274;49.022;9.338;2023-04-25T05:02:54;8.40;26.70
20231;DHT22;10274;49.022;9.338;2023-04-25T05:05:22;8.40;39.70
20231;DHT22;10274;49.022;9.338;2023-04-25T05:07:49;8.50;25.70
20231;DHT22;10274;49.022;9.338;2023-04-25T05:10:16;8.40;6.80
20231;DHT22;10274;49.022;9.338;2023-04-25T05:12:43;8.40;1.00
20231;DHT22;10274;49.022;9.338;2023-04-25T05:15:10;8.40;1.00
20231;DHT22;10274;49.022;9.338;2023-04-25T05:17:37;8.50;1.00
20231;DHT22;10274;49.022;9.338;2023-04-25T05:20:06;8.50;1.00
20231;DHT22;10274;49.022;9.338;2023-04-25T05:22:35;8.40;1.00
20231;DHT22;10274;49.022;9.338;2023-04-25T05:25:03;8.50;1.00
20231;DHT22;10274;49.022;9.338;2023-04-25T05:27:30;8.50;1.00
20231;DHT22;10274;49.022;9.338;2023-04-25T05:29:56;8.50;1.00
20231;DHT22;10274;49.022;9.338;2023-04-25T05:32:23;8.50;1.00
20231;DHT22;10274;49.022;9.338;2023-04-25T05:34:50;8.50;1.00
20231;DHT22;10274;49.022;9.338;2023-04-25T05:37:17;8.40;1.00
20231;DHT22;10274;49.022;9.338;2023-04-25T05:39:45;8.50;1.00
20231;DHT22;10274;49.022;9.338;2023-04-25T05:42:13;8.60;1.00
20231;DHT22;10274;49.022;9.338;2023-04-25T05:44:39;8.60;1.00
20231;DHT22;10274;49.022;9.338;2023-04-25T05:47:06;8.60;1.00
20231;DHT22;10274;49.022;9.338;2023-04-25T05:49:33;8.60;1.00
20231;DHT22;10274;49.022;9.338;2023-04-25T05:51:59;8.70;1.00
20231;DHT22;10274;49.022;9.338;2023-04-25T05:54:26;8.80;1.00
20231;DHT22;10274;49.022;9.338;2023-04-25T05:56:56;8.90;1.00
20231;DHT22;10274;49.022;9.338;2023-04-25T05:59:22;8.90;1.00
20231;DHT22;10274;49.022;9.338;2023-04-25T06:01:49;9.00;1.00
20231;DHT22;10274;49.022;9.338;2023-04-25T06:04:17;9.20;1.00
20231;DHT22;10274;49.022;9.338;2023-04-25T06:06:43;9.20;1.00
20231;DHT22;10274;49.022;9.338;2023-04-25T06:09:10;9.20;1.00
20231;DHT22;10274;49.022;9.338;2023-04-25T06:11:37;9.30;1.00
20231;DHT22;10274;49.022;9.338;2023-04-25T06:14:05;9.60;1.00
20231;DHT22;10274;49.022;9.338;2023-04-25T06:16:32;9.70;1.00
20231;DHT22;10274;49.022;9.338;2023-04-25T06:18:59;10.00;1.00
20231;DHT22;10274;49.022;9.338;2023-04-25T06:21:26;10.20;1.00
20231;DHT22;10274;49.022;9.338;2023-04-25T06:23:52;10.30;1.00
20231;DHT22;10274;49.022;9.338;2023-04-25T06:26:19;10.20;1.00
20231;DHT22;10274;49.022;9.338;2023-04-25T06:28:46;10.00;1.00
20231;DHT22;10274;49.022;9.338;2023-04-25T06:31:14;9.90;1.00
20231;DHT22;10274;49.022;9.338;2023-04-25T06:33:40;9.80;1.00
20231;DHT22;10274;49.022;9.338;2023-04-25T06:36:07;9.70;1.00
20231;DHT22;10274;49.022;9.338;2023-04-25T06:38:34;9.50;1.00
20231;DHT22;10274;49.022;9.338;2023-04-25T06:41:00;9.50;1.00
20231;DHT22;10274;49.022;9.338;2023-04-25T06:43:28;9.50;1.00
20231;DHT22;10274;49.022;9.338;2023-04-25T06:45:58;9.40;1.00
20231;DHT22;10274;49.022;9.338;2023-04-25T06:48:26;9.20;1.00
20231;DHT22;10274;49.022;9.338;2023-04-25T06:50:53;9.30;1.00
20231;DHT22;10274;49.022;9.338;2023-04-25T06:53:20;9.40;1.00
20231;DHT22;10274;49.022;9.338;2023-04-25T06:55:46;9.50;1.00
20231;DHT22;10274;49.022;9.338;2023-04-25T06:58:13;9.50;1.00
20231;DHT22;10274;49.022;9.338;2023-04-25T07:00:40;9.60;1.00
20231;DHT22;10274;49.022;9.338;2023-04-25T07:03:07;9.60;1.00
20231;DHT22;10274;49.022;9.338;2023-04-25T07:05:35;9.40;1.00
20231;DHT22;10274;49.022;9.338;2023-04-25T07:08:02;9.40;1.00
20231;DHT22;10274;49.022;9.338;2023-04-25T07:10:29;9.50;1.00
20231;DHT22;10274;49.022;9.338;2023-04-25T07:12:55;9.40;1.00
20231;DHT22;10274;49.022;9.338;2023-04-25T07:15:22;9.20;1.00
20231;DHT22;10274;49.022;9.338;2023-04-25T07:17:49;9.30;1.00
20231;DHT22;10274;49.022;9.338;2023-04-25T07:20:15;9.40;1.00
20231;DHT22;10274;49.022;9.338;2023-04-25T07:22:43;9.30;1.00
20231;DHT22;10274;49.022;9.338;2023-04-25T07:25:10;9.30;1.00
20231;DHT22;10274;49.022;9.338;2023-04-25T07:27:37;9.40;1.00
20231;DHT22;10274;49.022;9.338;2023-04-25T07:30:05;9.40;1.00
20231;DHT22;10274;49.022;9.338;2023-04-25T07:32:32;9.30;1.00
20231;DHT22;10274;49.022;9.338;2023-04-25T07:34:59;9.20;29.40
20231;DHT22;10274;49.022;9.338;2023-04-25T07:37:27;9.00;27.10
20231;DHT22;10274;49.022;9.338;2023-04-25T07:39:55;8.90;56.20
20231;DHT22;10274;49.022;9.338;2023-04-25T07:42:21;8.90;67.60
20231;DHT22;10274;49.022;9.338;2023-04-25T07:44:48;9.00;73.30
20231;DHT22;10274;49.022;9.338;2023-04-25T07:47:17;9.00;53.60
20231;DHT22;10274;49.022;9.338;2023-04-25T07:49:44;9.10;80.50
20231;DHT22;10274;49.022;9.338;2023-04-25T07:52:14;9.20;90.80
20231;DHT22;10274;49.022;9.338;2023-04-25T07:54:41;9.10;39.60
20231;DHT22;10274;49.022;9.338;2023-04-25T07:57:09;9.20;55.70
20231;DHT22;10274;49.022;9.338;2023-04-25T07:59:35;9.30;59.20
20231;DHT22;10274;49.022;9.338;2023-04-25T08:02:02;9.40;24.20
20231;DHT22;10274;49.022;9.338;2023-04-25T08:04:29;9.40;1.00
20231;DHT22;10274;49.022;9.338;2023-04-25T08:06:56;9.40;1.00
20231;DHT22;10274;49.022;9.338;2023-04-25T08:09:22;9.40;1.00
20231;DHT22;10274;49.022;9.338;2023-04-25T08:11:50;9.50;1.00
20231;DHT22;10274;49.022;9.338;2023-04-25T08:14:18;9.60;1.00
20231;DHT22;10274;49.022;9.338;2023-04-25T08:16:45;9.60;1.00
20231;DHT22;10274;49.022;9.338;2023-04-25T08:19:12;9.80;1.00
20231;DHT22;10274;49.022;9.338;2023-04-25T08:21:38;9.90;1.00
20231;DHT22;10274;49.022;9.338;2023-04-25T08:24:05;10.00;1.00
20231;DHT22;10274;49.022;9.338;2023-04-25T08:26:32;10.10;1.00
20231;DHT22;10274;49.022;9.338;2023-04-25T08:28:59;10.10;1.00
20231;DHT22;10274;49.022;9.338;2023-04-25T08:31:27;10.10;1.00
20231;DHT22;10274;49.022;9.338;2023-04-25T08:33:54;10.10;1.00
20231;DHT22;10274;49.022;9.338;2023-04-25T08:36:21;10.10;1.00
20231;DHT22;10274;49.022;9.338;2023-04-25T08:38:48;10.10;1.00
20231;DHT22;10274;49.022;9.338;2023-04-25T08:41:15;10.00;1.00
20231;DHT22;10274;49.022;9.338;2023-04-25T08:43:43;10.10;1.00
20231;DHT22;10274;49.022;9.338;2023-04-25T08:46:11;10.10;1.00
20231;DHT22;10274;49.022;9.338;2023-04-25T08:48:40;10.10;1.00
20231;DHT22;10274;49.022;9.338;2023-04-25T08:51:09;10.20;1.00
20231;DHT22;10274;49.022;9.338;2023-04-25T08:53:37;10.10;1.00
20231;DHT22;10274;49.022;9.338;2023-04-25T08:56:08;10.10;1.00
20231;DHT22;10274;49.022;9.338;2023-04-25T08:58:38;10.10;1.00
20231;DHT22;10274;49.022;9.338;2023-04-25T09:01:05;10.20;1.00
20231;DHT22;10274;49.022;9.338;2023-04-25T09:03:32;10.20;1.00
20231;DHT22;10274;49.022;9.338;2023-04-25T09:06:00;10.30;99.90
20231;DHT22;10274;49.022;9.338;2023-04-25T09:08:27;10.20;99.90
20231;DHT22;10274;49.022;9.338;2023-04-25T09:10:54;10.00;1.00
20231;DHT22;10274;49.022;9.338;2023-04-25T09:13:25;10.10;1.00
20231;DHT22;10274;49.022;9.338;2023-04-25T09:15:53;10.20;1.00
20231;DHT22;10274;49.022;9.338;2023-04-25T09:18:24;10.30;1.00
20231;DHT22;10274;49.022;9.338;2023-04-25T09:20:55;10.40;1.00
20231;DHT22;10274;49.022;9.338;2023-04-25T09:23:23;10.40;99.90
20231;DHT22;10274;49.022;9.338;2023-04-25T09:25:51;10.50;99.90
20231;DHT22;10274;49.022;9.338;2023-04-25T09:28:23;10.30;1.00
20231;DHT22;10274;49.022;9.338;2023-04-25T09:30:55;10.30;1.00
20231;DHT22;10274;49.022;9.338;2023-04-25T09:33:27;9.90;1.00
20231;DHT22;10274;49.022;9.338;2023-04-25T09:36:01;10.00;1.00
20231;DHT22;10274;49.022;9.338;2023-04-25T09:38:31;9.80;1.00
20231;DHT22;10274;49.022;9.338;2023-04-25T09:40:58;9.80;1.00
20231;DHT22;10274;49.022;9.338;2023-04-25T09:43:26;10.00;1.00
20231;DHT22;10274;49.022;9.338;2023-04-25T09:45:54;10.30;1.00
20231;DHT22;10274;49.022;9.338;2023-04-25T09:48:25;10.20;1.00
20231;DHT22;10274;49.022;9.338;2023-04-25T09:51:04;10.30;1.00
20231;DHT22;10274;49.022;9.338;2023-04-25T09:53:33;10.30;1.00
20231;DHT22;10274;49.022;9.338;2023-04-25T09:56:03;10.50;1.00
20231;DHT22;10274;49.022;9.338;2023-04-25T09:58:31;10.60;1.00
20231;DHT22;10274;49.022;9.338;2023-04-25T10:01:00;10.20;99.90
20231;DHT22;10274;49.022;9.338;2023-04-25T10:03:29;9.80;99.90
20231;DHT22;10274;49.022;9.338;2023-04-25T10:05:57;9.40;99.90
20231;DHT22;10274;49.022;9.338;2023-04-25T10:08:26;9.00;1.00
20231;DHT22;10274;49.022;9.338;2023-04-25T10:10:57;8.60;1.00
20231;DHT22;10274;49.022;9.338;2023-04-25T10:13:24;8.60;1.00
20231;DHT22;10274;49.022;9.338;2023-04-25T10:15:57;8.60;1.00
20231;DHT22;10274;49.022;9.338;2023-04-25T10:18:25;8.40;1.00
20231;DHT22;10274;49.022;9.338;2023-04-25T10:20:52;8.20;1.00
20231;DHT22;10274;49.022;9.338;2023-04-25T10:23:20;8.10;32.30
20231;DHT22;10274;49.022;9.338;2023-04-25T10:25:47;8.10;35.40
20231;DHT22;10274;49.022;9.338;2023-04-25T10:28:15;8.00;91.50
20231;DHT22;10274;49.022;9.338;2023-04-25T10:30:57;7.60;68.20
20231;DHT22;10274;49.022;9.338;2023-04-25T10:33:32;7.70;99.40
20231;DHT22;10274;49.022;9.338;2023-04-25T10:35:59;7.70;99.90
20231;DHT22;10274;49.022;9.338;2023-04-25T10:38:34;7.50;1.00
20231;DHT22;10274;49.022;9.338;2023-04-25T10:41:06;7.50;1.00
20231;DHT22;10274;49.022;9.338;2023-04-25T10:43:37;7.50;61.20
20231;DHT22;10274;49.022;9.338;2023-04-25T10:46:13;7.70;99.90
20231;DHT22;10274;49.022;9.338;2023-04-25T10:48:48;7.90;95.40
20231;DHT22;10274;49.022;9.338;2023-04-25T10:51:18;8.10;47.30
20231;DHT22;10274;49.022;9.338;2023-04-25T10:53:44;8.20;64.80
20231;DHT22;10274;49.022;9.338;2023-04-25T10:56:16;8.30;93.00
20231;DHT22;10274;49.022;9.338;2023-04-25T10:58:45;8.30;99.90
20231;DHT22;10274;49.022;9.338;2023-04-25T11:01:12;8.40;99.90
20231;DHT22;10274;49.022;9.338;2023-04-25T11:03:43;8.60;99.90
20231;DHT22;10274;49.022;9.338;2023-04-25T11:06:18;8.70;99.90
20231;DHT22;10274;49.022;9.338;2023-04-25T11:08:49;8.70;99.90
20231;DHT22;10274;49.022;9.338;2023-04-25T11:11:16;8.50;99.90
20231;DHT22;10274;49.022;9.338;2023-04-25T11:13:47;8.40;99.90
20231;DHT22;10274;49.022;9.338;2023-04-25T11:16:15;8.10;90.90
20231;DHT22;10274;49.022;9.338;2023-04-25T11:18:42;8.30;99.90
20231;DHT22;10274;49.022;9.338;2023-04-25T11:21:08;8.20;91.20
20231;DHT22;10274;49.022;9.338;2023-04-25T11:23:35;8.20;84.70
20231;DHT22;10274;49.022;9.338;2023-04-25T11:26:03;8.10;95.00
20231;DHT22;10274;49.022;9.338;2023-04-25T11:28:30;8.10;88.70
20231;DHT22;10274;49.022;9.338;2023-04-25T11:30:58;8.30;97.80
20231;DHT22;10274;49.022;9.338;2023-04-25T11:33:25;8.30;92.10
20231;DHT22;10274;49.022;9.338;2023-04-25T11:35:53;8.50;99.90
20231;DHT22;10274;49.022;9.338;2023-04-25T11:38:20;8.40;99.90
20231;DHT22;10274;49.022;9.338;2023-04-25T11:40:50;8.70;99.90
20231;DHT22;10274;49.022;9.338;2023-04-25T11:43:17;8.90;99.90
20231;DHT22;10274;49.022;9.338;2023-04-25T11:45:46;9.00;99.90
20231;DHT22;10274;49.022;9.338;2023-04-25T11:48:14;9.00;99.90
20231;DHT22;10274;49.022;9.338;2023-04-25T11:50:41;8.90;78.70
20231;DHT22;10274;49.022;9.338;2023-04-25T11:53:08;9.00;93.20
20231;DHT22;10274;49.022;9.338;2023-04-25T11:55:36;8.80;95.40
20231;DHT22;10274;49.022;9.338;2023-04-25T11:58:04;8.90;99.90
20231;DHT22;10274;49.022;9.338;2023-04-25T12:00:31;9.10;25.20
20231;DHT22;10274;49.022;9.338;2023-04-25T12:02:58;9.10;24.20
20231;DHT22;10274;49.022;9.338;2023-04-25T12:05:28;9.20;86.00
20231;DHT22;10274;49.022;9.338;2023-04-25T12:07:56;9.40;84.20
20231;DHT22;10274;49.022;9.338;2023-04-25T12:10:24;9.20;23.80
20231;DHT22;10274;49.022;9.338;2023-04-25T12:12:51;9.30;7.30
20231;DHT22;10274;49.022;9.338;2023-04-25T12:15:23;9.00;14.10
20231;DHT22;10274;49.022;9.338;2023-04-25T12:17:53;8.90;33.50
20231;DHT22;10274;49.022;9.338;2023-04-25T12:20:21;8.80;35.10
20231;DHT22;10274;49.022;9.338;2023-04-25T12:22:52;8.80;58.90
20231;DHT22;10274;49.022;9.338;2023-04-25T12:25:36;8.90;76.70
20231;DHT22;10274;49.022;9.338;2023-04-25T12:28:11;9.10;53.30
20231;DHT22;10274;49.022;9.338;2023-04-25T12:30:52;9.20;91.10
20231;DHT22;10274;49.022;9.338;2023-04-25T12:33:20;9.50;21.70
20231;DHT22;10274;49.022;9.338;2023-04-25T12:35:47;9.60;63.20
20231;DHT22;10274;49.022;9.338;2023-04-25T12:38:22;9.60;17.40
20231;DHT22;10274;49.022;9.338;2023-04-25T12:40:49;9.80;43.40
20231;DHT22;10274;49.022;9.338;2023-04-25T12:43:15;9.90;20.00
20231;DHT22;10274;49.022;9.338;2023-04-25T12:45:42;9.70;1.00
20231;DHT22;10274;49.022;9.338;2023-04-25T12:48:09;9.50;1.00
20231;DHT22;10274;49.022;9.338;2023-04-25T12:50:36;9.40;1.00
20231;DHT22;10274;49.022;9.338;2023-04-25T12:53:03;9.40;31.50
20231;DHT22;10274;49.022;9.338;2023-04-25T12:55:31;9.40;1.00
20231;DHT22;10274;49.022;9.338;2023-04-25T12:57:57;9.60;1.70
20231;DHT22;10274;49.022;9.338;2023-04-25T13:00:24;9.50;1.00
20231;DHT22;10274;49.022;9.338;2023-04-25T13:02:51;9.50;24.30
20231;DHT22;10274;49.022;9.338;2023-04-25T13:05:18;9.50;1.00
20231;DHT22;10274;49.022;9.338;2023-04-25T13:07:45;9.70;33.90
20231;DHT22;10274;49.022;9.338;2023-04-25T13:10:12;9.80;10.40
20231;DHT22;10274;49.022;9.338;2023-04-25T13:12:40;10.00;1.00
20231;DHT22;10274;49.022;9.338;2023-04-25T13:15:08;10.20;1.00
20231;DHT22;10274;49.022;9.338;2023-04-25T13:17:36;10.20;1.00
20231;DHT22;10274;49.022;9.338;2023-04-25T13:20:04;10.20;1.00
20231;DHT22;10274;49.022;9.338;2023-04-25T13:22:34;10.30;1.00
20231;DHT22;10274;49.022;9.338;2023-04-25T13:25:02;10.40;1.00
20231;DHT22;10274;49.022;9.338;2023-04-25T13:27:29;10.20;1.00
20231;DHT22;10274;49.022;9.338;2023-04-25T13:29:59;10.10;1.00
20231;DHT22;10274;49.022;9.338;2023-04-25T13:32:26;10.00;1.00
20231;DHT22;10274;49.022;9.338;2023-04-25T13:34:53;10.00;1.00
20231;DHT22;10274;49.022;9.338;2023-04-25T13:37:20;10.20;1.00
20231;DHT22;10274;49.022;9.338;2023-04-25T13:39:49;10.80;1.00
20231;DHT22;10274;49.022;9.338;2023-04-25T13:42:16;10.60;1.00
20231;DHT22;10274;49.022;9.338;2023-04-25T13:44:43;10.60;1.00
20231;DHT22;10274;49.022;9.338;2023-04-25T13:47:11;10.70;1.00
20231;DHT22;10274;49.022;9.338;2023-04-25T13:49:37;10.80;1.00
20231;DHT22;10274;49.022;9.338;2023-04-25T13:52:04;11.20;1.00
20231;DHT22;10274;49.022;9.338;2023-04-25T13:54:30;12.30;1.00
20231;DHT22;10274;49.022;9.338;2023-04-25T13:56:57;12.80;99.90
20231;DHT22;10274;49.022;9.338;2023-04-25T13:59:24;12.50;99.90
20231;DHT22;10274;49.022;9.338;2023-04-25T14:01:51;12.40;31.50
20231;DHT22;10274;49.022;9.338;2023-04-25T14:04:19;13.10;1.00
20231;DHT22;10274;49.022;9.338;2023-04-25T14:06:46;13.40;99.90
20231;DHT22;10274;49.022;9.338;2023-04-25T14:09:12;13.10;1.00
20231;DHT22;10274;49.022;9.338;2023-04-25T14:11:40;13.00;1.00
20231;DHT22;10274;49.022;9.338;2023-04-25T14:14:07;12.50;1.00
20231;DHT22;10274;49.022;9.338;2023-04-25T14:16:34;12.60;1.00
20231;DHT22;10274;49.022;9.338;2023-04-25T14:19:01;12.70;1.00
20231;DHT22;10274;49.022;9.338;2023-04-25T14:21:29;12.80;1.00
20231;DHT22;10274;49.022;9.338;2023-04-25T14:23:58;13.00;1.00
20231;DHT22;10274;49.022;9.338;2023-04-25T14:26:24;12.70;1.00
20231;DHT22;10274;49.022;9.338;2023-04-25T14:28:51;12.10;1.00
20231;DHT22;10274;49.022;9.338;2023-04-25T14:31:18;12.10;99.90
20231;DHT22;10274;49.022;9.338;2023-04-25T14:33:45;12.20;99.90
20231;DHT22;10274;49.022;9.338;2023-04-25T14:36:11;12.30;1.00
20231;DHT22;10274;49.022;9.338;2023-04-25T14:38:41;12.30;1.00
20231;DHT22;10274;49.022;9.338;2023-04-25T14:41:07;12.30;99.90
20231;DHT22;10274;49.022;9.338;2023-04-25T14:43:34;12.40;1.00
20231;DHT22;10274;49.022;9.338;2023-04-25T14:46:01;12.50;1.00
20231;DHT22;10274;49.022;9.338;2023-04-25T14:48:29;12.50;99.90
20231;DHT22;10274;49.022;9.338;2023-04-25T14:50:56;12.50;59.10
20231;DHT22;10274;49.022;9.338;2023-04-25T14:53:23;12.70;1.00
20231;DHT22;10274;49.022;9.338;2023-04-25T14:55:51;12.60;99.90
20231;DHT22;10274;49.022;9.338;2023-04-25T14:58:18;12.70;99.90
20231;DHT22;10274;49.022;9.338;2023-04-25T15:00:45;12.40;99.90
20231;DHT22;10274;49.022;9.338;2023-04-25T15:03:12;12.40;99.90
20231;DHT22;10274;49.022;9.338;2023-04-25T15:05:40;12.10;99.90
20231;DHT22;10274;49.022;9.338;2023-04-25T15:08:06;12.40;1.00
20231;DHT22;10274;49.022;9.338;2023-04-25T15:10:33;12.20;99.90
20231;DHT22;10274;49.022;9.338;2023-04-25T15:13:01;12.30;99.90
20231;DHT22;10274;49.022;9.338;2023-04-25T15:15:28;12.40;1.00
20231;DHT22;10274;49.022;9.338;2023-04-25T15:17:55;12.50;1.00
20231;DHT22;10274;49.022;9.338;2023-04-25T15:20:22;12.60;25.10
20231;DHT22;10274;49.022;9.338;2023-04-25T15:22:49;12.30;99.90
20231;DHT22;10274;49.022;9.338;2023-04-25T15:25:16;12.30;1.00
20231;DHT22;10274;49.022;9.338;2023-04-25T15:27:44;12.50;1.00
20231;DHT22;10274;49.022;9.338;2023-04-25T15:30:15;12.90;1.00
20231;DHT22;10274;49.022;9.338;2023-04-25T15:32:42;13.00;99.90
20231;DHT22;10274;49.022;9.338;2023-04-25T15:35:09;13.00;1.00
20231;DHT22;10274;49.022;9.338;2023-04-25T15:37:37;12.80;1.00
20231;DHT22;10274;49.022;9.338;2023-04-25T15:40:05;12.70;1.00
20231;DHT22;10274;49.022;9.338;2023-04-25T15:42:34;12.40;1.00
20231;DHT22;10274;49.022;9.338;2023-04-25T15:45:01;12.50;1.00
20231;DHT22;10274;49.022;9.338;2023-04-25T15:47:29;12.50;1.00
20231;DHT22;10274;49.022;9.338;2023-04-25T15:49:56;12.30;1.00